Time;durP1;ratioP1;P1;durP2;ratioP2;P2;SDS_P1;SDS_P2;PMS_P1;PMS_P2;Temp;Humidity;BMP_temperature;BMP_pressure;BME280_temperature;BME280_humidity;BME280_pressure;Samples;Min_cycle;Max_cycle;Signal;HPM_P1;HPM_P2
2023/11/01 00:00:43;;;;;;;;;;;;;;;;;;;;;
2023/11/01 00:08:28;;;;;;;4.13;2.77;;;14.10;99.90;;;;;;4914145;29;20447;-84
2023/11/01 00:15:56;;;;;;;6.20;2.90;;;14.20;99.90;;;;;;4909676;29;20579;-88
2023/11/01 00:29:15;;;;;;;3.57;2.47;;;14.20;99.90;;;;;;4997186;28;20439;-88
2023/11/01 00:36:49;;;;;;;7.33;2.70;;;14.10;99.90;;;;;;4921547;29;20434;-89
2023/11/01 00:43:57;;;;;;;4.63;3.03;;;14.00;99.90;;;;;;4957981;29;20429;-88
2023/11/01 00:56:08;;;;;;;6.00;3.27;;;14.00;99.90;;;;;;4901682;29;20501;-89
2023/11/01 00:59:55;;;;;;;3.83;2.77;;;13.90;99.90;;;;;;4941429;29;20484;-89
2023/11/01 01:09:30;;;;;;;4.30;2.60;;;13.90;99.90;;;;;;4984879;28;20464;-88
2023/11/01 01:13:38;;;;;;;5.30;2.20;;;13.90;99.90;;;;;;4951718;28;20529;-87
2023/11/01 01:17:01;;;;;;;;;;;;;;;;;;;;;
2023/11/01 01:20:19;;;;;;;4.93;2.17;;;13.80;99.90;;;;;;4900971;29;20440;-87
2023/11/01 01:46:05;;;;;;;4.17;1.47;;;13.70;99.90;;;;;;1516466;23;20766;-88
2023/11/01 03:04:36;;;;;;;2.33;1.43;;;13.50;99.90;;;;;;4929459;29;20457;-87
2023/11/01 03:08:16;;;;;;;2.33;1.20;;;13.60;99.90;;;;;;4856947;29;21041;-86
2023/11/01 03:15:14;;;;;;;5.33;1.97;;;13.50;99.90;;;;;;4785500;30;20511;-87
2023/11/01 03:33:44;;;;;;;2.57;1.43;;;13.40;99.90;;;;;;5016452;23;20853;-86
2023/11/01 03:37:28;;;;;;;3.27;1.13;;;13.40;99.90;;;;;;4959098;28;20470;-86
2023/11/01 03:40:27;;;;;;;1.63;1.53;;;13.40;99.90;;;;;;4901635;29;20507;-86
2023/11/01 03:44:26;;;;;;;;;;;;;;;;;;;;;
2023/11/01 03:54:47;;;;;;;3.63;1.33;;;13.30;99.90;;;;;;4920730;29;21002;-89
2023/11/01 03:58:04;;;;;;;1.60;1.50;;;13.30;99.90;;;;;;4912905;29;20430;-90
2023/11/01 04:00:59;;;;;;;4.23;2.17;;;13.30;99.90;;;;;;4917716;29;20950;-88
2023/11/01 04:12:28;;;;;;;;;;;;;;;;;;;;;
2023/11/01 04:16:23;;;;;;;2.20;1.40;;;13.20;99.90;;;;;;4834493;29;20475;-86
2023/11/01 04:19:44;;;;;;;1.73;1.53;;;13.30;99.90;;;;;;4851160;29;20486;-86
2023/11/01 04:39:21;;;;;;;1.30;1.20;;;13.50;99.90;;;;;;4950281;28;20859;-86
2023/11/01 05:21:52;;;;;;;2.97;1.27;;;13.60;99.90;;;;;;4978583;28;20484;-86
2023/11/01 05:25:13;;;;;;;2.73;1.10;;;13.60;99.90;;;;;;4943331;29;20548;-87
2023/11/01 05:28:38;;;;;;;;;;;;;;;;;;;;;
2023/11/01 05:31:53;;;;;;;3.20;1.30;;;13.70;99.90;;;;;;4934360;29;20450;-84
2023/11/01 05:35:16;;;;;;;1.33;1.23;;;13.60;99.90;;;;;;4944137;29;20475;-84
2023/11/01 05:38:46;;;;;;;2.93;1.40;;;13.50;99.90;;;;;;4886782;29;21080;-87
2023/11/01 05:53:14;;;;;;;1.67;1.10;;;13.50;99.90;;;;;;5041377;23;20511;-85
2023/11/01 05:57:06;;;;;;;1.87;1.03;;;13.30;99.90;;;;;;4996907;28;20434;-87
2023/11/01 06:17:21;;;;;;;1.10;1.00;;;13.70;99.90;;;;;;4938371;29;20509;-85
2023/11/01 06:28:21;;;;;;;1.97;0.93;;;13.70;99.90;;;;;;4721710;30;20461;-85
2023/11/01 06:32:44;;;;;;;2.00;1.07;;;13.80;99.90;;;;;;4702465;30;20477;-85
2023/11/01 06:36:08;;;;;;;1.20;1.10;;;13.70;99.90;;;;;;4789623;29;20482;-85
2023/11/01 06:40:00;;;;;;;;;;;;;;;;;;;;;
2023/11/01 06:43:19;;;;;;;0.90;0.90;;;13.80;99.90;;;;;;4783828;29;20508;-85
2023/11/01 06:47:01;;;;;;;;;;;;;;;;;;;;;
2023/11/01 07:05:49;;;;;;;1.93;1.17;;;13.90;99.90;;;;;;4827866;29;20472;-85
2023/11/01 07:09:19;;;;;;;;;;;;;;;;;;;;;
2023/11/01 07:13:05;;;;;;;5.10;1.20;;;13.80;99.90;;;;;;4858924;29;20449;-86
2023/11/01 07:16:53;;;;;;;;;;;;;;;;;;;;;
2023/11/01 07:20:29;;;;;;;;;;;;;;;;;;;;;
2023/11/01 07:39:07;;;;;;;3.00;1.50;;;14.20;99.90;;;;;;4764170;29;20457;-86
2023/11/01 07:42:25;;;;;;;1.50;1.30;;;14.20;99.90;;;;;;4830089;29;20567;-85
2023/11/01 07:49:10;;;;;;;4.50;1.40;;;14.30;99.90;;;;;;4821388;29;20455;-87
2023/11/01 07:52:48;;;;;;;4.63;1.50;;;14.40;99.90;;;;;;4818564;29;21160;-86
2023/11/01 07:56:28;;;;;;;;;;;;;;;;;;;;;
2023/11/01 08:04:04;;;;;;;3.30;1.37;;;14.60;99.90;;;;;;4736338;30;20484;-84
2023/11/01 08:11:00;;;;;;;1.07;0.80;;;14.70;99.90;;;;;;4694323;30;20454;-86
2023/11/01 08:14:31;;;;;;;2.90;1.50;;;14.70;99.90;;;;;;4773677;30;20510;-86
2023/11/01 08:18:15;;;;;;;;;;;;;;;;;;;;;
2023/11/01 08:21:32;;;;;;;3.43;1.93;;;14.70;99.90;;;;;;4792688;29;20614;-85
2023/11/01 08:24:47;;;;;;;;;;;;;;;;;;;;;
2023/11/01 08:28:04;;;;;;;4.00;1.70;;;14.60;99.90;;;;;;4891334;29;20451;-85
2023/11/01 08:31:21;;;;;;;5.90;1.50;;;14.70;99.90;;;;;;4919584;29;20438;-86
2023/11/01 08:42:36;;;;;;;;;;;;;;;;;;;;;
2023/11/01 08:46:05;;;;;;;3.60;1.57;;;15.00;99.90;;;;;;4967804;28;20544;-86
2023/11/01 08:53:07;;;;;;;4.27;1.50;;;15.00;99.90;;;;;;4936120;29;20481;-87
2023/11/01 09:00:33;;;;;;;2.20;1.13;;;15.10;99.90;;;;;;4982036;28;20489;-85
2023/11/01 09:03:58;;;;;;;3.00;1.40;;;15.10;99.90;;;;;;4962852;28;20476;-86
2023/11/01 09:07:18;;;;;;;;;;;;;;;;;;;;;
2023/11/01 09:10:38;;;;;;;1.70;0.93;;;15.10;99.90;;;;;;4862194;29;20557;-85
2023/11/01 09:13:31;;;;;;;4.53;1.23;;;15.30;99.90;;;;;;4879095;29;20479;-86
2023/11/01 09:16:24;;;;;;;4.73;3.63;;;15.10;99.90;;;;;;4877887;29;20459;-85
2023/11/01 09:22:42;;;;;;;3.30;1.30;;;15.30;99.90;;;;;;4873851;29;20602;-88
2023/11/01 09:26:26;;;;;;;4.40;1.33;;;15.20;99.90;;;;;;4854366;29;20468;-86
2023/11/01 09:32:39;;;;;;;1.43;1.17;;;15.40;99.90;;;;;;4929850;29;20454;-85
2023/11/01 09:38:51;;;;;;;1.53;1.10;;;15.50;99.90;;;;;;4934537;28;21023;-86
2023/11/01 09:42:17;;;;;;;;;;;;;;;;;;;;;
2023/11/01 10:59:50;;;;;;;2.17;1.00;;;16.00;99.90;;;;;;4978076;28;20862;-87
2023/11/01 11:03:43;;;;;;;4.60;1.53;;;16.20;99.90;;;;;;4990733;28;20590;-85
2023/11/01 11:07:43;;;;;;;2.67;1.50;;;16.10;99.70;;;;;;4975047;28;20423;-86
2023/11/01 11:11:10;;;;;;;;;;;;;;;;;;;;;
2023/11/01 11:20:58;;;;;;;7.13;1.60;;;16.30;99.50;;;;;;4923454;29;20474;-86
2023/11/01 11:24:43;;;;;;;3.00;1.50;;;16.20;99.20;;;;;;4929236;29;21004;-85
2023/11/01 11:28:10;;;;;;;6.23;1.33;;;16.20;99.30;;;;;;4867637;29;20498;-83
2023/11/01 11:31:27;;;;;;;2.90;1.47;;;16.20;99.10;;;;;;4871267;29;20449;-84
2023/11/01 11:34:36;;;;;;;;;;;;;;;;;;;;;
2023/11/01 11:41:56;;;;;;;4.43;1.20;;;16.50;98.20;;;;;;4981747;28;20510;-85
2023/11/01 12:12:13;;;;;;;4.53;1.30;;;16.30;97.70;;;;;;4907990;29;20472;-85
2023/11/01 12:22:31;;;;;;;6.70;1.50;;;16.20;97.60;;;;;;4923993;29;20513;-85
2023/11/01 12:25:39;;;;;;;2.87;1.03;;;16.30;97.60;;;;;;4924120;29;20494;-86
2023/11/01 12:28:29;;;;;;;2.70;1.67;;;16.30;97.50;;;;;;4926892;28;20455;-85
2023/11/01 12:35:19;;;;;;;3.03;1.20;;;16.20;97.60;;;;;;4955706;28;20460;-85
2023/11/01 12:39:03;;;;;;;1.27;0.90;;;16.10;97.60;;;;;;4972409;28;20962;-85
2023/11/01 12:42:29;;;;;;;4.83;1.20;;;16.10;97.80;;;;;;4975484;28;20483;-86
2023/11/01 12:45:41;;;;;;;2.20;1.03;;;16.20;97.90;;;;;;4980565;28;20728;-86
2023/11/01 12:48:55;;;;;;;;;;;;;;;;;;;;;
2023/11/01 12:58:38;;;;;;;4.43;1.47;;;16.00;98.90;;;;;;4831604;29;20520;-86
2023/11/01 13:05:17;;;;;;;;;;;;;;;;;;;;;
2023/11/01 13:08:32;;;;;;;5.53;1.90;;;15.90;99.90;;;;;;4833211;29;20522;-86
2023/11/01 13:11:39;;;;;;;6.03;1.90;;;16.00;99.90;;;;;;4849225;29;20556;-86
2023/11/01 13:14:44;;;;;;;3.23;1.50;;;16.10;99.90;;;;;;4855952;29;20492;-87
2023/11/01 13:17:52;;;;;;;4.00;1.43;;;16.10;99.90;;;;;;4829012;29;20462;-85
2023/11/01 13:24:45;;;;;;;4.43;1.60;;;15.80;99.90;;;;;;4858831;29;21032;-86
2023/11/01 13:27:52;;;;;;;2.73;1.70;;;15.80;99.90;;;;;;4896158;29;20482;-86
2023/11/01 13:30:54;;;;;;;4.57;1.70;;;15.80;99.90;;;;;;4907738;29;20470;-84
2023/11/01 13:42:41;;;;;;;2.50;1.50;;;15.80;99.90;;;;;;4969297;28;20467;-84
2023/11/01 13:46:09;;;;;;;;;;;;;;;;;;;;;
2023/11/01 13:49:03;;;;;;;5.23;3.07;;;15.70;99.90;;;;;;4908849;29;20469;-84
2023/11/01 13:51:47;;;;;;;5.57;2.47;;;15.60;99.90;;;;;;4882512;29;21845;-84
2023/11/01 13:54:33;;;;;;;5.83;2.43;;;15.70;99.90;;;;;;4870557;29;20687;-83
2023/11/01 13:57:30;;;;;;;2.03;1.63;;;15.70;99.90;;;;;;4900628;29;20454;-84
2023/11/01 14:00:11;;;;;;;3.83;2.30;;;15.60;99.90;;;;;;4827295;29;20472;-84
2023/11/01 14:06:19;;;;;;;4.57;2.83;;;15.50;99.90;;;;;;4849649;29;20465;-84
2023/11/01 14:09:28;;;;;;;5.27;2.33;;;15.50;99.90;;;;;;4882915;29;20452;-84
2023/11/01 14:12:15;;;;;;;5.37;2.90;;;15.50;99.90;;;;;;4910020;29;20473;-86
2023/11/01 14:15:50;;;;;;;;;;;;;;;;;;;;;
2023/11/01 14:23:12;;;;;;;4.40;2.47;;;15.40;99.90;;;;;;4893176;29;20487;-84
2023/11/01 14:26:29;;;;;;;3.87;2.83;;;15.50;99.90;;;;;;4919888;28;20501;-85
2023/11/01 14:29:14;;;;;;;7.03;1.90;;;15.20;99.90;;;;;;4911700;29;20547;-85
2023/11/01 14:32:46;;;;;;;4.00;2.20;;;15.30;99.90;;;;;;4936653;28;20472;-84
2023/11/01 14:36:15;;;;;;;5.30;3.10;;;15.40;99.90;;;;;;4969423;28;20550;-86
2023/11/01 14:51:00;;;;;;;;;;;;;;;;;;;;;
2023/11/01 14:54:30;;;;;;;;;;;;;;;;;;;;;
2023/11/01 14:57:37;;;;;;;5.57;1.90;;;15.40;99.90;;;;;;4822059;29;21430;-84
2023/11/01 15:01:01;;;;;;;;;;;;;;;;;;;;;
2023/11/01 15:04:09;;;;;;;3.13;1.87;;;15.40;99.90;;;;;;4847994;29;20476;-86
2023/11/01 15:07:40;;;;;;;2.73;1.43;;;15.50;99.90;;;;;;4888552;29;20456;-85
2023/11/01 15:10:34;;;;;;;3.83;1.63;;;15.30;99.90;;;;;;4879786;29;20464;-85
2023/11/01 15:20:50;;;;;;;;;;;;;;;;;;;;;
2023/11/01 15:24:12;;;;;;;2.27;1.60;;;15.40;99.90;;;;;;4899420;28;20487;-84
2023/11/01 15:27:05;;;;;;;3.40;1.80;;;15.40;99.90;;;;;;4964253;28;20463;-85
2023/11/01 15:29:56;;;;;;;4.77;1.63;;;15.20;99.90;;;;;;4966373;28;20454;-87
2023/11/01 15:41:01;;;;;;;3.30;1.77;;;15.30;99.90;;;;;;4960055;28;20484;-87
2023/11/01 15:43:58;;;;;;;3.20;1.37;;;15.40;99.90;;;;;;4958387;23;20575;-84
2023/11/01 15:46:56;;;;;;;2.40;1.40;;;15.40;99.90;;;;;;4953325;28;20469;-86
2023/11/01 15:53:31;;;;;;;5.73;1.53;;;15.50;99.90;;;;;;4970179;28;20565;-84
2023/11/01 15:57:12;;;;;;;1.30;1.10;;;15.40;99.90;;;;;;4964331;28;20439;-85
2023/11/01 16:00:09;;;;;;;2.33;1.83;;;15.50;99.90;;;;;;4884928;29;20636;-85
2023/11/01 16:03:19;;;;;;;3.80;1.70;;;15.50;99.90;;;;;;4873370;29;21093;-84
2023/11/01 16:07:15;;;;;;;2.30;1.17;;;15.50;99.90;;;;;;4905585;29;20578;-83
2023/11/01 16:10:24;;;;;;;1.90;1.10;;;15.50;99.90;;;;;;4858583;28;20545;-84
2023/11/01 16:13:30;;;;;;;2.57;1.47;;;15.50;99.90;;;;;;4917398;28;20476;-85
2023/11/01 16:19:57;;;;;;;1.17;1.07;;;15.60;98.60;;;;;;4945114;28;20441;-86
2023/11/01 16:23:19;;;;;;;3.27;1.70;;;15.50;98.00;;;;;;4953593;28;20489;-86
2023/11/01 16:26:37;;;;;;;2.03;1.20;;;15.60;97.70;;;;;;4901348;29;20477;-86
2023/11/01 16:30:02;;;;;;;1.70;1.17;;;15.70;97.20;;;;;;4920173;28;20679;-86
2023/11/01 16:33:06;;;;;;;1.17;1.07;;;15.80;96.80;;;;;;4982746;28;20484;-85
2023/11/01 16:39:10;;;;;;;1.40;0.90;;;15.80;96.30;;;;;;4985294;28;20546;-85
2023/11/01 16:42:17;;;;;;;1.40;1.17;;;15.80;96.00;;;;;;4969081;28;20507;-83
2023/11/01 16:45:43;;;;;;;3.03;1.60;;;15.90;95.50;;;;;;4987962;28;20487;-84
2023/11/01 16:48:34;;;;;;;3.07;1.17;;;15.90;95.60;;;;;;4937301;28;20456;-85
2023/11/01 16:51:19;;;;;;;2.10;1.17;;;15.90;95.10;;;;;;4966929;28;20520;-83
2023/11/01 16:54:58;;;;;;;1.27;1.07;;;15.90;94.90;;;;;;4980099;28;20545;-84
2023/11/01 16:58:03;;;;;;;2.47;1.67;;;15.80;94.90;;;;;;4932107;28;20440;-84
2023/11/01 17:00:30;;;;;;;1.77;1.50;;;15.80;95.00;;;;;;4944971;28;20464;-84
2023/11/01 17:05:32;;;;;;;1.30;1.20;;;15.70;95.10;;;;;;5532925;23;20508;-85
2023/11/01 17:07:59;;;;;;;1.10;0.80;;;15.80;95.10;;;;;;5005908;28;20520;-86
2023/11/01 17:10:27;;;;;;;1.33;1.03;;;15.80;95.00;;;;;;5009704;28;20457;-85
2023/11/01 17:12:58;;;;;;;2.40;1.27;;;15.80;95.00;;;;;;5004915;28;20988;-84
2023/11/01 17:15:26;;;;;;;2.40;1.30;;;15.80;95.10;;;;;;5003272;28;20504;-84
2023/11/01 17:17:56;;;;;;;1.77;1.10;;;15.80;94.70;;;;;;4990888;28;20450;-83
2023/11/01 17:20:25;;;;;;;1.23;0.70;;;15.80;94.80;;;;;;4991435;28;20537;-84
2023/11/01 17:23:00;;;;;;;2.03;1.07;;;15.80;94.90;;;;;;4992119;28;20482;-84
2023/11/01 17:25:42;;;;;;;5.13;1.20;;;15.70;95.00;;;;;;4987137;28;20463;-84
2023/11/01 17:28:20;;;;;;;1.27;0.80;;;15.70;95.20;;;;;;4999765;28;20561;-82
2023/11/01 17:30:49;;;;;;;0.70;0.70;;;15.70;94.90;;;;;;4998284;28;20470;-84
2023/11/01 17:33:23;;;;;;;1.43;0.90;;;15.70;95.00;;;;;;4982683;28;20512;-85
2023/11/01 17:35:50;;;;;;;0.87;0.50;;;15.60;95.10;;;;;;4983579;28;20522;-85
2023/11/01 17:38:20;;;;;;;1.03;0.70;;;15.60;95.10;;;;;;4998507;28;20472;-84
2023/11/01 17:40:53;;;;;;;1.83;1.07;;;15.50;95.20;;;;;;5015837;28;20516;-83
2023/11/01 17:43:47;;;;;;;1.73;1.10;;;15.50;95.70;;;;;;5001961;28;20763;-82
2023/11/01 17:46:18;;;;;;;2.60;1.00;;;15.50;95.60;;;;;;5016324;28;20456;-81
2023/11/01 17:48:46;;;;;;;1.30;1.13;;;15.50;95.60;;;;;;4979806;28;20474;-83
2023/11/01 17:51:14;;;;;;;2.07;1.03;;;15.40;95.80;;;;;;4978781;28;20466;-82
2023/11/01 17:53:43;;;;;;;2.27;1.30;;;15.40;95.40;;;;;;4982095;28;20529;-83
2023/11/01 17:56:12;;;;;;;1.20;1.10;;;15.30;95.30;;;;;;4988186;28;20826;-83
2023/11/01 17:58:46;;;;;;;0.80;0.80;;;15.20;95.10;;;;;;4997138;28;20483;-85
2023/11/01 18:01:16;;;;;;;2.13;1.33;;;15.20;95.20;;;;;;4974000;28;20489;-85
2023/11/01 18:03:44;;;;;;;1.03;0.80;;;15.20;95.00;;;;;;4995967;28;20512;-85
2023/11/01 18:06:18;;;;;;;0.70;0.70;;;15.10;95.00;;;;;;4987397;28;20537;-83
2023/11/01 18:08:46;;;;;;;1.23;0.73;;;15.00;95.00;;;;;;4994188;28;20434;-84
2023/11/01 18:11:18;;;;;;;0.60;0.60;;;15.00;95.10;;;;;;4999416;28;20458;-84
2023/11/01 18:13:45;;;;;;;0.80;0.80;;;15.00;95.20;;;;;;4985386;28;20481;-84
2023/11/01 18:16:26;;;;;;;0.80;0.80;;;15.00;95.20;;;;;;4995544;28;20464;-83
2023/11/01 18:18:57;;;;;;;1.00;0.90;;;15.10;95.60;;;;;;5005268;28;20481;-84
2023/11/01 18:21:36;;;;;;;1.70;0.90;;;15.10;95.60;;;;;;4995976;28;21033;-83
2023/11/01 18:24:11;;;;;;;1.10;0.80;;;15.10;95.80;;;;;;4975566;28;20494;-83
2023/11/01 18:26:42;;;;;;;1.10;1.00;;;15.00;96.00;;;;;;5002899;28;20450;-83
2023/11/01 18:29:10;;;;;;;1.50;0.93;;;15.00;96.40;;;;;;5007648;28;20442;-83
2023/11/01 18:31:40;;;;;;;1.50;1.40;;;14.90;96.50;;;;;;4994820;28;20484;-83
2023/11/01 18:34:12;;;;;;;1.30;1.20;;;14.80;96.60;;;;;;4990905;28;20555;-82
2023/11/01 18:36:48;;;;;;;1.50;1.10;;;14.70;96.70;;;;;;5008540;28;20478;-83
2023/11/01 18:39:21;;;;;;;1.17;0.70;;;14.70;96.70;;;;;;5014117;28;20466;-83
2023/11/01 18:41:54;;;;;;;1.43;0.90;;;14.80;96.30;;;;;;5002535;28;20513;-82
2023/11/01 18:44:39;;;;;;;1.03;0.80;;;14.70;96.00;;;;;;5007473;28;20474;-83
2023/11/01 18:47:08;;;;;;;1.10;0.90;;;14.70;96.00;;;;;;5002272;28;20459;-83
2023/11/01 18:49:52;;;;;;;2.30;0.80;;;14.60;96.00;;;;;;5000221;28;20546;-82
2023/11/01 18:52:20;;;;;;;1.27;0.97;;;14.60;96.20;;;;;;5018030;28;20442;-82
2023/11/01 18:54:51;;;;;;;1.83;1.13;;;14.60;96.40;;;;;;5012957;28;20455;-83
2023/11/01 18:57:22;;;;;;;1.77;1.43;;;14.60;96.70;;;;;;5001410;28;20455;-83
2023/11/01 18:59:49;;;;;;;0.90;0.87;;;14.60;97.00;;;;;;5001646;28;20473;-85
2023/11/01 19:02:34;;;;;;;1.40;1.30;;;14.70;97.20;;;;;;4998337;28;20453;-84
2023/11/01 19:05:15;;;;;;;1.73;1.63;;;14.70;97.20;;;;;;5004850;28;20453;-83
2023/11/01 19:07:45;;;;;;;1.80;1.57;;;14.60;97.10;;;;;;5019072;28;20564;-83
2023/11/01 19:10:20;;;;;;;4.60;1.90;;;14.60;97.20;;;;;;5006901;28;20466;-82
2023/11/01 19:12:52;;;;;;;2.97;1.43;;;14.50;97.00;;;;;;4986554;28;20481;-83
2023/11/01 19:15:35;;;;;;;4.63;1.20;;;14.50;97.10;;;;;;4998001;28;20471;-85
2023/11/01 19:18:17;;;;;;;2.17;1.07;;;14.60;97.20;;;;;;4998234;28;20533;-83
2023/11/01 19:20:46;;;;;;;1.80;1.70;;;14.50;97.20;;;;;;4996007;28;20545;-85
2023/11/01 19:23:15;;;;;;;2.53;1.23;;;14.40;97.30;;;;;;4988613;28;20498;-85
2023/11/01 19:25:45;;;;;;;2.40;1.13;;;14.30;97.50;;;;;;4987868;28;20443;-83
2023/11/01 19:28:13;;;;;;;3.20;1.43;;;14.30;97.70;;;;;;5000674;28;20463;-84
2023/11/01 19:30:43;;;;;;;2.50;1.00;;;14.40;97.60;;;;;;4999050;28;20450;-85
2023/11/01 19:33:09;;;;;;;1.10;1.10;;;14.30;97.50;;;;;;4995501;28;20554;-82
2023/11/01 19:35:45;;;;;;;1.50;1.40;;;14.30;97.60;;;;;;4998559;28;20461;-84
2023/11/01 19:38:15;;;;;;;2.10;1.10;;;14.30;97.50;;;;;;5001601;28;20461;-84
2023/11/01 19:40:43;;;;;;;1.77;1.50;;;14.20;97.60;;;;;;4981420;28;20462;-83
2023/11/01 19:43:11;;;;;;;2.80;1.40;;;14.20;97.80;;;;;;4986620;28;20552;-83
2023/11/01 19:45:47;;;;;;;2.60;1.40;;;14.10;97.90;;;;;;4989463;28;20425;-84
2023/11/01 19:48:18;;;;;;;2.50;1.63;;;14.00;98.10;;;;;;5011888;28;20442;-83
2023/11/01 19:50:47;;;;;;;3.53;1.40;;;14.00;98.30;;;;;;5011886;28;20458;-84
2023/11/01 19:53:16;;;;;;;4.13;2.40;;;13.90;98.50;;;;;;5003136;28;20478;-84
2023/11/01 19:55:56;;;;;;;2.57;1.67;;;14.00;98.60;;;;;;4995908;28;20887;-82
2023/11/01 19:58:33;;;;;;;3.40;1.20;;;14.00;98.70;;;;;;5006420;28;20442;-87
2023/11/01 20:01:06;;;;;;;2.43;1.27;;;13.90;98.80;;;;;;5010499;28;20454;-86
2023/11/01 20:03:35;;;;;;;4.00;1.50;;;14.00;98.90;;;;;;4989140;28;20634;-85
2023/11/01 20:06:09;;;;;;;1.23;1.07;;;13.80;99.00;;;;;;4999178;28;20476;-85
2023/11/01 20:08:36;;;;;;;1.60;1.00;;;13.90;99.20;;;;;;5005688;28;20474;-84
2023/11/01 20:11:06;;;;;;;2.93;1.20;;;13.80;99.30;;;;;;5002799;28;20462;-85
2023/11/01 20:14:01;;;;;;;5.83;1.37;;;13.90;99.30;;;;;;5192414;23;20491;-85
2023/11/01 20:16:31;;;;;;;3.30;1.00;;;13.80;99.30;;;;;;4966733;28;20496;-84
2023/11/01 20:19:03;;;;;;;2.00;1.03;;;13.70;99.40;;;;;;4955049;28;20468;-83
2023/11/01 20:21:37;;;;;;;2.30;1.50;;;13.70;99.60;;;;;;4958454;28;20521;-84
2023/11/01 20:24:52;;;;;;;;;;;;;;;;;;;;;
2023/11/01 20:31:50;;;;;;;2.87;1.27;;;13.70;99.70;;;;;;4977610;28;22055;-84
2023/11/01 21:48:05;;;;;;;;;;;;;;;;;;;;;
2023/11/01 21:51:12;;;;;;;1.73;1.40;;;13.80;99.90;;;;;;4958103;28;20500;-85
2023/11/01 21:54:02;;;;;;;1.67;0.90;;;13.70;99.90;;;;;;4956083;28;20476;-83
2023/11/01 21:57:04;;;;;;;2.53;1.23;;;13.70;99.90;;;;;;4952074;28;20498;-85
2023/11/01 22:00:15;;;;;;;1.50;0.80;;;13.70;99.90;;;;;;4938895;28;20551;-84
2023/11/01 22:03:24;;;;;;;2.47;0.90;;;13.70;99.90;;;;;;4961824;28;20579;-85
2023/11/01 22:07:06;;;;;;;3.73;1.37;;;13.60;99.90;;;;;;4936266;28;20440;-86
2023/11/01 22:10:05;;;;;;;;;;;;;;;;;;;;;
2023/11/01 22:13:06;;;;;;;4.47;0.90;;;13.50;99.90;;;;;;4965810;28;20441;-83
2023/11/01 22:15:54;;;;;;;1.23;0.87;;;13.50;99.90;;;;;;4948483;28;20461;-84
2023/11/01 22:19:04;;;;;;;2.87;1.07;;;13.50;99.90;;;;;;4946371;28;20435;-85
2023/11/01 22:22:15;;;;;;;1.17;1.00;;;13.40;99.90;;;;;;4956654;28;20440;-84
2023/11/01 22:25:25;;;;;;;;;;;;;;;;;;;;;
2023/11/01 22:29:00;;;;;;;;;;;;;;;;;;;;;
2023/11/01 22:32:08;;;;;;;2.77;1.03;;;13.60;99.90;;;;;;4816465;29;21265;-85
2023/11/01 22:35:20;;;;;;;;;;;;;;;;;;;;;
2023/11/01 22:42:21;;;;;;;2.10;0.80;;;13.50;99.90;;;;;;4859624;29;20569;-85
2023/11/01 22:45:57;;;;;;;1.37;0.90;;;13.50;99.90;;;;;;4862929;29;20579;-82
2023/11/01 22:56:27;;;;;;;1.40;0.60;;;13.40;99.90;;;;;;4922174;28;20812;-84
2023/11/01 22:59:42;;;;;;;;;;;;;;;;;;;;;
2023/11/01 23:03:17;;;;;;;1.70;0.80;;;13.50;99.90;;;;;;4956593;28;20424;-86
2023/11/01 23:10:31;;;;;;;;;;;;;;;;;;;;;
2023/11/01 23:14:27;;;;;;;0.87;0.73;;;13.30;99.90;;;;;;4900198;29;21046;-83
2023/11/01 23:17:04;;;;;;;4.00;1.13;;;13.40;99.90;;;;;;4894897;29;20520;-85
2023/11/01 23:20:42;;;;;;;1.90;1.00;;;13.40;99.90;;;;;;4884525;29;20527;-84
2023/11/01 23:27:50;;;;;;;3.40;0.80;;;13.20;99.90;;;;;;4896688;29;20511;-83
2023/11/01 23:31:10;;;;;;;;;;;;;;;;;;;;;
2023/11/01 23:38:00;;;;;;;2.87;0.80;;;13.10;99.90;;;;;;4889529;29;20666;-83
2023/11/01 23:41:24;;;;;;;2.00;0.90;;;13.10;99.90;;;;;;4840840;29;20445;-84
2023/11/01 23:44:41;;;;;;;2.47;0.90;;;13.10;99.90;;;;;;4837117;29;20683;-83
2023/11/01 23:48:06;;;;;;;1.13;0.97;;;13.10;99.90;;;;;;4842545;29;20442;-83
2023/11/01 23:51:02;;;;;;;1.23;1.07;;;13.10;99.90;;;;;;4837137;29;20466;-85
2023/11/01 23:54:19;;;;;;;1.00;0.90;;;13.10;99.90;;;;;;4841026;29;20568;-84
2023/11/01 23:57:06;;;;;;;0.87;0.80;;;13.00;99.90;;;;;;4829968;29;20466;-84
2023/11/01 23:59:58;;;;;;;2.07;0.80;;;13.10;99.90;;;;;;4825497;29;20482;-83
